sensor_id;sensor_type;location;lat;lon;timestamp;P1;durP1;ratioP1;P2;durP2;ratioP2
57319;SDS011;43158;51.026;18.190;2022-07-01T00:00:45;52.50;;;45.30;;
57319;SDS011;43158;51.026;18.190;2022-07-01T00:03:31;51.00;;;44.20;;
57319;SDS011;43158;51.026;18.190;2022-07-01T00:06:18;51.30;;;46.00;;
57319;SDS011;43158;51.026;18.190;2022-07-01T00:09:02;51.20;;;46.00;;
57319;SDS011;43158;51.026;18.190;2022-07-01T00:11:51;51.10;;;45.70;;
57319;SDS011;43158;51.026;18.190;2022-07-01T00:14:35;52.30;;;46.30;;
57319;SDS011;43158;51.026;18.190;2022-07-01T00:17:20;53.40;;;47.80;;
57319;SDS011;43158;51.026;18.190;2022-07-01T00:20:05;56.90;;;49.70;;
57319;SDS011;43158;51.026;18.190;2022-07-01T00:22:51;55.40;;;49.70;;
57319;SDS011;43158;51.026;18.190;2022-07-01T00:25:36;54.20;;;48.50;;
57319;SDS011;43158;51.026;18.190;2022-07-01T00:28:21;66.10;;;50.20;;
57319;SDS011;43158;51.026;18.190;2022-07-01T00:31:06;61.60;;;50.70;;
57319;SDS011;43158;51.026;18.190;2022-07-01T00:33:50;55.80;;;49.50;;
57319;SDS011;43158;51.026;18.190;2022-07-01T00:36:35;60.40;;;50.90;;
57319;SDS011;43158;51.026;18.190;2022-07-01T00:39:20;54.90;;;47.90;;
57319;SDS011;43158;51.026;18.190;2022-07-01T00:42:04;55.50;;;49.70;;
57319;SDS011;43158;51.026;18.190;2022-07-01T00:44:49;55.90;;;49.50;;
57319;SDS011;43158;51.026;18.190;2022-07-01T00:47:33;68.10;;;51.50;;
57319;SDS011;43158;51.026;18.190;2022-07-01T00:50:25;58.80;;;51.30;;
57319;SDS011;43158;51.026;18.190;2022-07-01T00:53:11;55.50;;;49.60;;
57319;SDS011;43158;51.026;18.190;2022-07-01T00:55:56;61.20;;;54.40;;
57319;SDS011;43158;51.026;18.190;2022-07-01T00:58:42;57.80;;;51.90;;
57319;SDS011;43158;51.026;18.190;2022-07-01T01:01:26;58.60;;;52.80;;
57319;SDS011;43158;51.026;18.190;2022-07-01T01:04:12;64.00;;;55.30;;
57319;SDS011;43158;51.026;18.190;2022-07-01T01:06:57;62.40;;;55.80;;
57319;SDS011;43158;51.026;18.190;2022-07-01T01:09:45;64.50;;;55.90;;
57319;SDS011;43158;51.026;18.190;2022-07-01T01:12:29;64.40;;;57.50;;
57319;SDS011;43158;51.026;18.190;2022-07-01T01:15:18;71.50;;;62.10;;
57319;SDS011;43158;51.026;18.190;2022-07-01T01:18:03;62.30;;;55.30;;
57319;SDS011;43158;51.026;18.190;2022-07-01T01:20:48;68.80;;;59.90;;
57319;SDS011;43158;51.026;18.190;2022-07-01T01:23:33;70.30;;;56.30;;
57319;SDS011;43158;51.026;18.190;2022-07-01T01:26:19;64.20;;;57.30;;
57319;SDS011;43158;51.026;18.190;2022-07-01T01:29:09;72.40;;;60.10;;
57319;SDS011;43158;51.026;18.190;2022-07-01T01:31:53;73.50;;;58.90;;
57319;SDS011;43158;51.026;18.190;2022-07-01T01:34:39;80.70;;;63.90;;
57319;SDS011;43158;51.026;18.190;2022-07-01T01:37:26;78.10;;;61.90;;
57319;SDS011;43158;51.026;18.190;2022-07-01T01:40:15;72.80;;;62.60;;
57319;SDS011;43158;51.026;18.190;2022-07-01T01:43:00;69.30;;;61.30;;
57319;SDS011;43158;51.026;18.190;2022-07-01T01:45:45;78.00;;;63.00;;
57319;SDS011;43158;51.026;18.190;2022-07-01T01:48:30;83.60;;;65.40;;
57319;SDS011;43158;51.026;18.190;2022-07-01T01:51:15;70.00;;;62.10;;
57319;SDS011;43158;51.026;18.190;2022-07-01T01:54:03;78.80;;;70.40;;
57319;SDS011;43158;51.026;18.190;2022-07-01T01:56:48;84.10;;;75.00;;
57319;SDS011;43158;51.026;18.190;2022-07-01T01:59:32;77.00;;;68.90;;
57319;SDS011;43158;51.026;18.190;2022-07-01T02:02:17;83.20;;;70.20;;
57319;SDS011;43158;51.026;18.190;2022-07-01T02:05:06;82.20;;;73.60;;
57319;SDS011;43158;51.026;18.190;2022-07-01T02:07:54;85.70;;;77.10;;
57319;SDS011;43158;51.026;18.190;2022-07-01T02:10:38;85.60;;;77.00;;
57319;SDS011;43158;51.026;18.190;2022-07-01T02:13:23;84.40;;;75.60;;
57319;SDS011;43158;51.026;18.190;2022-07-01T02:16:07;89.70;;;75.80;;
57319;SDS011;43158;51.026;18.190;2022-07-01T02:18:52;82.40;;;72.70;;
57319;SDS011;43158;51.026;18.190;2022-07-01T02:21:37;92.20;;;73.10;;
57319;SDS011;43158;51.026;18.190;2022-07-01T02:24:22;88.60;;;73.10;;
57319;SDS011;43158;51.026;18.190;2022-07-01T02:27:07;83.00;;;74.30;;
57319;SDS011;43158;51.026;18.190;2022-07-01T02:29:52;87.80;;;78.70;;
57319;SDS011;43158;51.026;18.190;2022-07-01T02:32:36;86.00;;;76.10;;
57319;SDS011;43158;51.026;18.190;2022-07-01T02:35:21;82.00;;;68.40;;
57319;SDS011;43158;51.026;18.190;2022-07-01T02:38:06;89.80;;;74.50;;
57319;SDS011;43158;51.026;18.190;2022-07-01T02:40:51;92.30;;;70.70;;
57319;SDS011;43158;51.026;18.190;2022-07-01T02:43:36;93.10;;;74.40;;
57319;SDS011;43158;51.026;18.190;2022-07-01T02:46:21;86.80;;;71.40;;
57319;SDS011;43158;51.026;18.190;2022-07-01T02:49:07;89.50;;;67.50;;
57319;SDS011;43158;51.026;18.190;2022-07-01T02:51:52;78.20;;;66.80;;
57319;SDS011;43158;51.026;18.190;2022-07-01T02:54:37;94.40;;;73.10;;
57319;SDS011;43158;51.026;18.190;2022-07-01T02:57:22;90.40;;;80.60;;
57319;SDS011;43158;51.026;18.190;2022-07-01T03:00:07;91.60;;;81.40;;
57319;SDS011;43158;51.026;18.190;2022-07-01T03:02:54;83.80;;;74.80;;
57319;SDS011;43158;51.026;18.190;2022-07-01T03:05:40;85.70;;;76.40;;
57319;SDS011;43158;51.026;18.190;2022-07-01T03:08:24;88.20;;;73.10;;
57319;SDS011;43158;51.026;18.190;2022-07-01T03:11:09;85.40;;;74.70;;
57319;SDS011;43158;51.026;18.190;2022-07-01T03:13:54;83.70;;;74.00;;
57319;SDS011;43158;51.026;18.190;2022-07-01T03:16:51;82.10;;;73.40;;
57319;SDS011;43158;51.026;18.190;2022-07-01T03:19:35;81.30;;;72.90;;
57319;SDS011;43158;51.026;18.190;2022-07-01T03:22:20;85.60;;;76.40;;
57319;SDS011;43158;51.026;18.190;2022-07-01T03:25:07;86.20;;;77.30;;
57319;SDS011;43158;51.026;18.190;2022-07-01T03:27:53;86.50;;;77.00;;
57319;SDS011;43158;51.026;18.190;2022-07-01T03:30:37;85.10;;;75.80;;
57319;SDS011;43158;51.026;18.190;2022-07-01T03:33:22;87.10;;;77.70;;
57319;SDS011;43158;51.026;18.190;2022-07-01T03:36:06;91.40;;;80.80;;
57319;SDS011;43158;51.026;18.190;2022-07-01T03:38:51;85.90;;;76.90;;
57319;SDS011;43158;51.026;18.190;2022-07-01T03:41:35;89.70;;;78.40;;
57319;SDS011;43158;51.026;18.190;2022-07-01T03:44:20;89.90;;;80.20;;
57319;SDS011;43158;51.026;18.190;2022-07-01T03:47:05;91.00;;;81.20;;
57319;SDS011;43158;51.026;18.190;2022-07-01T03:49:49;89.20;;;79.10;;
57319;SDS011;43158;51.026;18.190;2022-07-01T03:52:34;92.90;;;82.80;;
57319;SDS011;43158;51.026;18.190;2022-07-01T03:55:19;94.80;;;83.80;;
57319;SDS011;43158;51.026;18.190;2022-07-01T03:58:04;92.20;;;82.20;;
57319;SDS011;43158;51.026;18.190;2022-07-01T04:00:48;101.50;;;85.70;;
57319;SDS011;43158;51.026;18.190;2022-07-01T04:03:33;94.20;;;83.60;;
57319;SDS011;43158;51.026;18.190;2022-07-01T04:06:17;95.40;;;81.90;;
57319;SDS011;43158;51.026;18.190;2022-07-01T04:09:02;96.20;;;82.50;;
57319;SDS011;43158;51.026;18.190;2022-07-01T04:11:48;100.00;;;87.80;;
57319;SDS011;43158;51.026;18.190;2022-07-01T04:14:34;102.30;;;88.10;;
57319;SDS011;43158;51.026;18.190;2022-07-01T04:17:20;100.70;;;84.90;;
57319;SDS011;43158;51.026;18.190;2022-07-01T04:20:04;106.70;;;90.20;;
57319;SDS011;43158;51.026;18.190;2022-07-01T04:22:50;110.50;;;86.90;;
57319;SDS011;43158;51.026;18.190;2022-07-01T04:25:34;97.80;;;86.90;;
57319;SDS011;43158;51.026;18.190;2022-07-01T04:28:19;94.60;;;84.40;;
57319;SDS011;43158;51.026;18.190;2022-07-01T04:31:04;112.90;;;90.10;;
57319;SDS011;43158;51.026;18.190;2022-07-01T04:33:50;117.20;;;89.40;;
57319;SDS011;43158;51.026;18.190;2022-07-01T04:36:34;115.80;;;93.20;;
57319;SDS011;43158;51.026;18.190;2022-07-01T04:39:20;122.50;;;101.90;;
57319;SDS011;43158;51.026;18.190;2022-07-01T04:42:05;113.60;;;95.50;;
57319;SDS011;43158;51.026;18.190;2022-07-01T04:44:50;111.20;;;94.00;;
57319;SDS011;43158;51.026;18.190;2022-07-01T04:47:35;114.50;;;94.90;;
57319;SDS011;43158;51.026;18.190;2022-07-01T04:50:20;115.90;;;92.30;;
57319;SDS011;43158;51.026;18.190;2022-07-01T04:53:05;115.90;;;100.40;;
57319;SDS011;43158;51.026;18.190;2022-07-01T04:55:50;111.20;;;95.50;;
57319;SDS011;43158;51.026;18.190;2022-07-01T04:58:34;120.30;;;98.90;;
57319;SDS011;43158;51.026;18.190;2022-07-01T05:01:19;129.40;;;98.00;;
57319;SDS011;43158;51.026;18.190;2022-07-01T05:04:05;112.30;;;97.00;;
57319;SDS011;43158;51.026;18.190;2022-07-01T05:06:49;104.30;;;92.20;;
57319;SDS011;43158;51.026;18.190;2022-07-01T05:09:34;126.80;;;96.70;;
57319;SDS011;43158;51.026;18.190;2022-07-01T05:12:19;110.80;;;94.40;;
57319;SDS011;43158;51.026;18.190;2022-07-01T05:15:04;105.30;;;88.80;;
57319;SDS011;43158;51.026;18.190;2022-07-01T05:17:50;107.10;;;95.40;;
57319;SDS011;43158;51.026;18.190;2022-07-01T05:20:54;110.70;;;95.50;;
57319;SDS011;43158;51.026;18.190;2022-07-01T05:23:58;136.20;;;102.30;;
57319;SDS011;43158;51.026;18.190;2022-07-01T05:26:44;120.60;;;96.80;;
57319;SDS011;43158;51.026;18.190;2022-07-01T05:29:34;110.60;;;93.10;;
57319;SDS011;43158;51.026;18.190;2022-07-01T05:32:21;105.00;;;90.80;;
57319;SDS011;43158;51.026;18.190;2022-07-01T05:35:06;108.50;;;93.90;;
57319;SDS011;43158;51.026;18.190;2022-07-01T05:37:51;97.70;;;87.00;;
57319;SDS011;43158;51.026;18.190;2022-07-01T05:40:35;99.20;;;86.20;;
57319;SDS011;43158;51.026;18.190;2022-07-01T05:43:20;99.70;;;88.80;;
57319;SDS011;43158;51.026;18.190;2022-07-01T05:46:04;101.90;;;86.00;;
57319;SDS011;43158;51.026;18.190;2022-07-01T05:48:49;95.60;;;85.50;;
57319;SDS011;43158;51.026;18.190;2022-07-01T05:51:34;93.00;;;81.90;;
57319;SDS011;43158;51.026;18.190;2022-07-01T05:54:18;91.30;;;81.60;;
57319;SDS011;43158;51.026;18.190;2022-07-01T05:57:03;88.50;;;78.10;;
57319;SDS011;43158;51.026;18.190;2022-07-01T05:59:48;86.20;;;76.80;;
57319;SDS011;43158;51.026;18.190;2022-07-01T06:02:33;87.10;;;78.40;;
57319;SDS011;43158;51.026;18.190;2022-07-01T06:05:18;86.30;;;77.40;;
57319;SDS011;43158;51.026;18.190;2022-07-01T06:08:03;85.80;;;76.70;;
57319;SDS011;43158;51.026;18.190;2022-07-01T06:10:48;79.00;;;70.90;;
57319;SDS011;43158;51.026;18.190;2022-07-01T06:13:33;75.50;;;68.00;;
57319;SDS011;43158;51.026;18.190;2022-07-01T06:16:18;75.80;;;68.10;;
57319;SDS011;43158;51.026;18.190;2022-07-01T06:19:03;74.70;;;67.30;;
57319;SDS011;43158;51.026;18.190;2022-07-01T06:21:48;69.90;;;62.90;;
57319;SDS011;43158;51.026;18.190;2022-07-01T06:24:33;66.90;;;60.60;;
57319;SDS011;43158;51.026;18.190;2022-07-01T06:27:18;79.70;;;71.90;;
57319;SDS011;43158;51.026;18.190;2022-07-01T06:30:03;65.60;;;58.30;;
57319;SDS011;43158;51.026;18.190;2022-07-01T06:32:48;60.80;;;54.70;;
57319;SDS011;43158;51.026;18.190;2022-07-01T06:35:33;62.40;;;55.90;;
57319;SDS011;43158;51.026;18.190;2022-07-01T06:38:18;59.80;;;54.10;;
57319;SDS011;43158;51.026;18.190;2022-07-01T06:41:04;54.60;;;48.80;;
57319;SDS011;43158;51.026;18.190;2022-07-01T06:44:07;56.80;;;51.30;;
57319;SDS011;43158;51.026;18.190;2022-07-01T06:46:52;51.60;;;46.70;;
57319;SDS011;43158;51.026;18.190;2022-07-01T06:49:36;49.20;;;44.30;;
57319;SDS011;43158;51.026;18.190;2022-07-01T06:52:22;52.30;;;47.60;;
57319;SDS011;43158;51.026;18.190;2022-07-01T06:55:07;55.60;;;50.90;;
57319;SDS011;43158;51.026;18.190;2022-07-01T06:57:52;53.00;;;48.70;;
57319;SDS011;43158;51.026;18.190;2022-07-01T07:00:36;50.40;;;45.80;;
57319;SDS011;43158;51.026;18.190;2022-07-01T07:03:21;42.40;;;39.00;;
57319;SDS011;43158;51.026;18.190;2022-07-01T07:06:06;42.80;;;39.00;;
57319;SDS011;43158;51.026;18.190;2022-07-01T07:08:50;42.60;;;38.70;;
57319;SDS011;43158;51.026;18.190;2022-07-01T07:11:35;34.00;;;31.00;;
57319;SDS011;43158;51.026;18.190;2022-07-01T07:14:20;35.80;;;32.90;;
57319;SDS011;43158;51.026;18.190;2022-07-01T07:17:04;27.20;;;24.90;;
57319;SDS011;43158;51.026;18.190;2022-07-01T07:19:50;25.80;;;23.80;;
57319;SDS011;43158;51.026;18.190;2022-07-01T07:22:40;24.10;;;22.30;;
57319;SDS011;43158;51.026;18.190;2022-07-01T07:25:25;29.90;;;27.30;;
57319;SDS011;43158;51.026;18.190;2022-07-01T07:28:09;24.50;;;22.10;;
57319;SDS011;43158;51.026;18.190;2022-07-01T07:30:54;22.00;;;20.10;;
57319;SDS011;43158;51.026;18.190;2022-07-01T07:33:40;17.00;;;15.50;;
57319;SDS011;43158;51.026;18.190;2022-07-01T07:36:26;19.80;;;17.00;;
57319;SDS011;43158;51.026;18.190;2022-07-01T07:39:15;17.90;;;16.60;;
57319;SDS011;43158;51.026;18.190;2022-07-01T07:42:00;18.90;;;16.90;;
57319;SDS011;43158;51.026;18.190;2022-07-01T07:44:45;17.00;;;15.00;;
57319;SDS011;43158;51.026;18.190;2022-07-01T07:47:30;17.80;;;15.90;;
57319;SDS011;43158;51.026;18.190;2022-07-01T07:50:14;15.30;;;13.90;;
57319;SDS011;43158;51.026;18.190;2022-07-01T07:52:59;16.40;;;14.50;;
57319;SDS011;43158;51.026;18.190;2022-07-01T07:55:44;16.40;;;14.20;;
57319;SDS011;43158;51.026;18.190;2022-07-01T07:58:29;15.60;;;14.30;;
57319;SDS011;43158;51.026;18.190;2022-07-01T08:01:13;15.80;;;14.40;;
57319;SDS011;43158;51.026;18.190;2022-07-01T08:03:58;17.30;;;15.20;;
57319;SDS011;43158;51.026;18.190;2022-07-01T08:06:42;16.10;;;14.50;;
57319;SDS011;43158;51.026;18.190;2022-07-01T08:09:27;15.20;;;13.90;;
57319;SDS011;43158;51.026;18.190;2022-07-01T08:12:12;18.10;;;12.80;;
57319;SDS011;43158;51.026;18.190;2022-07-01T08:14:56;13.30;;;12.00;;
57319;SDS011;43158;51.026;18.190;2022-07-01T08:17:41;17.70;;;13.00;;
57319;SDS011;43158;51.026;18.190;2022-07-01T08:20:25;15.70;;;13.20;;
57319;SDS011;43158;51.026;18.190;2022-07-01T08:23:10;12.80;;;11.80;;
57319;SDS011;43158;51.026;18.190;2022-07-01T08:25:55;13.20;;;12.00;;
57319;SDS011;43158;51.026;18.190;2022-07-01T08:28:40;12.90;;;11.50;;
57319;SDS011;43158;51.026;18.190;2022-07-01T08:31:25;13.00;;;11.80;;
57319;SDS011;43158;51.026;18.190;2022-07-01T08:34:10;15.70;;;11.20;;
57319;SDS011;43158;51.026;18.190;2022-07-01T08:36:55;18.20;;;11.50;;
57319;SDS011;43158;51.026;18.190;2022-07-01T08:39:39;12.90;;;11.80;;
57319;SDS011;43158;51.026;18.190;2022-07-01T08:42:24;17.20;;;11.70;;
57319;SDS011;43158;51.026;18.190;2022-07-01T08:45:09;13.60;;;12.20;;
57319;SDS011;43158;51.026;18.190;2022-07-01T08:47:54;13.10;;;11.90;;
57319;SDS011;43158;51.026;18.190;2022-07-01T08:50:49;12.70;;;11.70;;
57319;SDS011;43158;51.026;18.190;2022-07-01T08:53:34;13.10;;;12.00;;
57319;SDS011;43158;51.026;18.190;2022-07-01T08:56:19;15.20;;;12.30;;
57319;SDS011;43158;51.026;18.190;2022-07-01T08:59:25;17.50;;;13.40;;
57319;SDS011;43158;51.026;18.190;2022-07-01T09:02:11;15.00;;;12.50;;
57319;SDS011;43158;51.026;18.190;2022-07-01T09:05:05;14.30;;;12.90;;
57319;SDS011;43158;51.026;18.190;2022-07-01T09:07:57;13.50;;;12.10;;
57319;SDS011;43158;51.026;18.190;2022-07-01T09:10:43;14.60;;;13.10;;
57319;SDS011;43158;51.026;18.190;2022-07-01T09:13:28;13.70;;;12.20;;
57319;SDS011;43158;51.026;18.190;2022-07-01T09:16:14;13.00;;;11.80;;
57319;SDS011;43158;51.026;18.190;2022-07-01T09:19:04;13.60;;;12.10;;
57319;SDS011;43158;51.026;18.190;2022-07-01T09:21:50;16.80;;;12.20;;
57319;SDS011;43158;51.026;18.190;2022-07-01T09:24:45;14.40;;;11.80;;
57319;SDS011;43158;51.026;18.190;2022-07-01T09:27:31;12.90;;;11.60;;
57319;SDS011;43158;51.026;18.190;2022-07-01T09:30:15;14.80;;;12.10;;
57319;SDS011;43158;51.026;18.190;2022-07-01T09:36:08;12.60;;;10.80;;
57319;SDS011;43158;51.026;18.190;2022-07-01T09:39:03;13.00;;;11.90;;
57319;SDS011;43158;51.026;18.190;2022-07-01T09:41:48;15.00;;;11.70;;
57319;SDS011;43158;51.026;18.190;2022-07-01T09:44:33;13.20;;;11.90;;
57319;SDS011;43158;51.026;18.190;2022-07-01T09:47:18;13.00;;;11.90;;
57319;SDS011;43158;51.026;18.190;2022-07-01T09:50:08;12.40;;;11.10;;
57319;SDS011;43158;51.026;18.190;2022-07-01T09:52:57;15.10;;;11.80;;
57319;SDS011;43158;51.026;18.190;2022-07-01T09:55:43;13.90;;;11.40;;
57319;SDS011;43158;51.026;18.190;2022-07-01T09:58:28;13.80;;;11.20;;
57319;SDS011;43158;51.026;18.190;2022-07-01T10:01:16;13.10;;;10.20;;
57319;SDS011;43158;51.026;18.190;2022-07-01T10:04:01;11.80;;;9.80;;
57319;SDS011;43158;51.026;18.190;2022-07-01T10:09:58;11.40;;;8.80;;
57319;SDS011;43158;51.026;18.190;2022-07-01T10:13:06;13.70;;;9.30;;
57319;SDS011;43158;51.026;18.190;2022-07-01T10:15:51;11.20;;;9.90;;
57319;SDS011;43158;51.026;18.190;2022-07-01T10:18:37;10.50;;;9.60;;
57319;SDS011;43158;51.026;18.190;2022-07-01T10:21:29;14.00;;;10.00;;
57319;SDS011;43158;51.026;18.190;2022-07-01T10:24:15;13.00;;;10.50;;
57319;SDS011;43158;51.026;18.190;2022-07-01T10:27:01;10.40;;;9.50;;
57319;SDS011;43158;51.026;18.190;2022-07-01T10:29:45;16.80;;;11.30;;
57319;SDS011;43158;51.026;18.190;2022-07-01T10:32:30;13.90;;;10.10;;
57319;SDS011;43158;51.026;18.190;2022-07-01T10:35:15;13.20;;;9.90;;
57319;SDS011;43158;51.026;18.190;2022-07-01T10:38:00;11.50;;;9.80;;
57319;SDS011;43158;51.026;18.190;2022-07-01T10:40:49;14.30;;;10.50;;
57319;SDS011;43158;51.026;18.190;2022-07-01T10:43:34;10.40;;;8.40;;
57319;SDS011;43158;51.026;18.190;2022-07-01T10:49:51;6.90;;;5.70;;
57319;SDS011;43158;51.026;18.190;2022-07-01T10:52:58;11.60;;;6.20;;
57319;SDS011;43158;51.026;18.190;2022-07-01T10:55:45;12.10;;;6.50;;
57319;SDS011;43158;51.026;18.190;2022-07-01T11:01:47;7.30;;;5.50;;
57319;SDS011;43158;51.026;18.190;2022-07-01T11:04:39;9.80;;;6.70;;
57319;SDS011;43158;51.026;18.190;2022-07-01T11:07:28;10.00;;;6.90;;
57319;SDS011;43158;51.026;18.190;2022-07-01T11:10:22;9.00;;;6.60;;
57319;SDS011;43158;51.026;18.190;2022-07-01T11:13:24;11.80;;;6.00;;
57319;SDS011;43158;51.026;18.190;2022-07-01T11:16:26;7.90;;;5.70;;
57319;SDS011;43158;51.026;18.190;2022-07-01T11:19:12;11.10;;;5.70;;
57319;SDS011;43158;51.026;18.190;2022-07-01T11:21:58;6.80;;;5.60;;
57319;SDS011;43158;51.026;18.190;2022-07-01T11:24:43;9.40;;;6.20;;
57319;SDS011;43158;51.026;18.190;2022-07-01T11:27:28;9.50;;;6.20;;
57319;SDS011;43158;51.026;18.190;2022-07-01T11:30:14;7.40;;;6.10;;
57319;SDS011;43158;51.026;18.190;2022-07-01T11:32:59;11.50;;;6.10;;
57319;SDS011;43158;51.026;18.190;2022-07-01T11:35:44;18.10;;;6.10;;
57319;SDS011;43158;51.026;18.190;2022-07-01T11:38:48;7.00;;;6.40;;
57319;SDS011;43158;51.026;18.190;2022-07-01T11:41:54;7.10;;;5.60;;
57319;SDS011;43158;51.026;18.190;2022-07-01T11:44:43;7.90;;;5.70;;
57319;SDS011;43158;51.026;18.190;2022-07-01T11:47:29;13.50;;;6.80;;
57319;SDS011;43158;51.026;18.190;2022-07-01T11:50:15;7.10;;;6.00;;
57319;SDS011;43158;51.026;18.190;2022-07-01T11:53:00;8.40;;;6.80;;
57319;SDS011;43158;51.026;18.190;2022-07-01T11:55:45;9.30;;;6.20;;
57319;SDS011;43158;51.026;18.190;2022-07-01T12:01:35;11.40;;;6.80;;
57319;SDS011;43158;51.026;18.190;2022-07-01T12:04:22;18.60;;;6.10;;
57319;SDS011;43158;51.026;18.190;2022-07-01T12:07:07;8.30;;;5.80;;
57319;SDS011;43158;51.026;18.190;2022-07-01T12:09:54;9.40;;;5.90;;
57319;SDS011;43158;51.026;18.190;2022-07-01T12:12:40;8.10;;;6.20;;
57319;SDS011;43158;51.026;18.190;2022-07-01T12:15:25;7.90;;;6.30;;
57319;SDS011;43158;51.026;18.190;2022-07-01T12:18:10;9.10;;;5.50;;
57319;SDS011;43158;51.026;18.190;2022-07-01T12:20:54;6.10;;;5.50;;
57319;SDS011;43158;51.026;18.190;2022-07-01T12:23:40;5.80;;;4.00;;
57319;SDS011;43158;51.026;18.190;2022-07-01T12:26:25;7.30;;;3.40;;
57319;SDS011;43158;51.026;18.190;2022-07-01T12:29:11;6.80;;;3.00;;
57319;SDS011;43158;51.026;18.190;2022-07-01T12:32:00;7.00;;;2.40;;
57319;SDS011;43158;51.026;18.190;2022-07-01T12:34:47;5.70;;;3.20;;
57319;SDS011;43158;51.026;18.190;2022-07-01T12:37:36;4.40;;;3.10;;
57319;SDS011;43158;51.026;18.190;2022-07-01T12:40:22;11.50;;;2.70;;
57319;SDS011;43158;51.026;18.190;2022-07-01T12:43:28;3.90;;;2.80;;
57319;SDS011;43158;51.026;18.190;2022-07-01T12:46:25;5.00;;;3.10;;
57319;SDS011;43158;51.026;18.190;2022-07-01T12:49:23;4.60;;;2.90;;
57319;SDS011;43158;51.026;18.190;2022-07-01T12:52:28;4.80;;;3.80;;
57319;SDS011;43158;51.026;18.190;2022-07-01T12:55:14;5.10;;;3.70;;
57319;SDS011;43158;51.026;18.190;2022-07-01T12:58:07;6.40;;;4.50;;
57319;SDS011;43158;51.026;18.190;2022-07-01T13:00:54;5.30;;;4.40;;
57319;SDS011;43158;51.026;18.190;2022-07-01T13:03:42;8.00;;;4.90;;
57319;SDS011;43158;51.026;18.190;2022-07-01T13:06:26;6.40;;;5.40;;
57319;SDS011;43158;51.026;18.190;2022-07-01T13:09:10;10.00;;;5.40;;
57319;SDS011;43158;51.026;18.190;2022-07-01T13:12:00;8.10;;;5.40;;
57319;SDS011;43158;51.026;18.190;2022-07-01T13:14:46;6.70;;;5.50;;
57319;SDS011;43158;51.026;18.190;2022-07-01T13:17:30;5.90;;;5.40;;
57319;SDS011;43158;51.026;18.190;2022-07-01T13:20:15;7.10;;;6.20;;
57319;SDS011;43158;51.026;18.190;2022-07-01T13:23:01;6.50;;;5.80;;
57319;SDS011;43158;51.026;18.190;2022-07-01T13:25:46;7.20;;;5.50;;
57319;SDS011;43158;51.026;18.190;2022-07-01T13:28:30;9.70;;;5.50;;
57319;SDS011;43158;51.026;18.190;2022-07-01T13:31:15;11.40;;;6.10;;
57319;SDS011;43158;51.026;18.190;2022-07-01T13:34:01;10.40;;;6.00;;
57319;SDS011;43158;51.026;18.190;2022-07-01T13:36:46;7.70;;;5.90;;
57319;SDS011;43158;51.026;18.190;2022-07-01T13:39:31;6.60;;;5.60;;
57319;SDS011;43158;51.026;18.190;2022-07-01T13:42:16;9.50;;;5.10;;
57319;SDS011;43158;51.026;18.190;2022-07-01T13:45:01;7.30;;;4.60;;
57319;SDS011;43158;51.026;18.190;2022-07-01T13:47:47;5.20;;;4.80;;
57319;SDS011;43158;51.026;18.190;2022-07-01T13:50:32;5.60;;;4.70;;
57319;SDS011;43158;51.026;18.190;2022-07-01T13:53:18;5.50;;;4.90;;
57319;SDS011;43158;51.026;18.190;2022-07-01T13:56:03;11.30;;;5.50;;
57319;SDS011;43158;51.026;18.190;2022-07-01T13:58:48;11.50;;;4.50;;
57319;SDS011;43158;51.026;18.190;2022-07-01T14:01:39;6.80;;;5.50;;
57319;SDS011;43158;51.026;18.190;2022-07-01T14:04:28;9.80;;;5.00;;
57319;SDS011;43158;51.026;18.190;2022-07-01T14:07:13;6.40;;;5.20;;
57319;SDS011;43158;51.026;18.190;2022-07-01T14:09:58;6.20;;;4.80;;
57319;SDS011;43158;51.026;18.190;2022-07-01T14:12:43;12.50;;;5.30;;
57319;SDS011;43158;51.026;18.190;2022-07-01T14:15:28;7.50;;;5.80;;
57319;SDS011;43158;51.026;18.190;2022-07-01T14:18:13;6.70;;;6.10;;
57319;SDS011;43158;51.026;18.190;2022-07-01T14:20:58;7.30;;;5.90;;
57319;SDS011;43158;51.026;18.190;2022-07-01T14:23:45;8.70;;;6.10;;
57319;SDS011;43158;51.026;18.190;2022-07-01T14:26:30;7.60;;;6.30;;
57319;SDS011;43158;51.026;18.190;2022-07-01T14:29:18;11.20;;;6.40;;
57319;SDS011;43158;51.026;18.190;2022-07-01T14:32:02;12.10;;;6.20;;
57319;SDS011;43158;51.026;18.190;2022-07-01T14:34:47;23.90;;;7.70;;
57319;SDS011;43158;51.026;18.190;2022-07-01T14:37:32;10.70;;;6.70;;
57319;SDS011;43158;51.026;18.190;2022-07-01T14:40:17;18.70;;;7.40;;
57319;SDS011;43158;51.026;18.190;2022-07-01T14:43:03;10.60;;;7.60;;
57319;SDS011;43158;51.026;18.190;2022-07-01T14:45:47;11.80;;;8.50;;
57319;SDS011;43158;51.026;18.190;2022-07-01T14:48:32;14.50;;;7.90;;
57319;SDS011;43158;51.026;18.190;2022-07-01T14:51:19;9.40;;;7.80;;
57319;SDS011;43158;51.026;18.190;2022-07-01T14:54:04;8.80;;;7.30;;
57319;SDS011;43158;51.026;18.190;2022-07-01T14:56:48;10.70;;;8.30;;
57319;SDS011;43158;51.026;18.190;2022-07-01T14:59:33;11.70;;;8.10;;
57319;SDS011;43158;51.026;18.190;2022-07-01T15:02:18;9.10;;;7.70;;
57319;SDS011;43158;51.026;18.190;2022-07-01T15:05:04;10.10;;;7.80;;
57319;SDS011;43158;51.026;18.190;2022-07-01T15:07:49;8.80;;;7.90;;
57319;SDS011;43158;51.026;18.190;2022-07-01T15:10:34;10.00;;;8.20;;
57319;SDS011;43158;51.026;18.190;2022-07-01T15:13:19;13.00;;;7.80;;
57319;SDS011;43158;51.026;18.190;2022-07-01T15:16:04;8.20;;;7.50;;
57319;SDS011;43158;51.026;18.190;2022-07-01T15:18:49;8.30;;;7.00;;
57319;SDS011;43158;51.026;18.190;2022-07-01T15:21:33;10.10;;;7.30;;
57319;SDS011;43158;51.026;18.190;2022-07-01T15:24:18;11.70;;;7.10;;
57319;SDS011;43158;51.026;18.190;2022-07-01T15:27:03;13.80;;;7.40;;
57319;SDS011;43158;51.026;18.190;2022-07-01T15:29:48;8.30;;;7.00;;
57319;SDS011;43158;51.026;18.190;2022-07-01T15:32:33;11.60;;;7.00;;
57319;SDS011;43158;51.026;18.190;2022-07-01T15:35:19;12.90;;;7.40;;
57319;SDS011;43158;51.026;18.190;2022-07-01T15:38:04;7.90;;;7.00;;
57319;SDS011;43158;51.026;18.190;2022-07-01T15:40:48;8.70;;;7.70;;
57319;SDS011;43158;51.026;18.190;2022-07-01T15:43:33;10.00;;;9.00;;
57319;SDS011;43158;51.026;18.190;2022-07-01T15:46:18;11.10;;;9.00;;
57319;SDS011;43158;51.026;18.190;2022-07-01T15:49:03;10.00;;;8.20;;
57319;SDS011;43158;51.026;18.190;2022-07-01T15:51:50;11.60;;;8.90;;
57319;SDS011;43158;51.026;18.190;2022-07-01T15:54:34;14.10;;;9.80;;
57319;SDS011;43158;51.026;18.190;2022-07-01T15:57:21;13.20;;;10.50;;
57319;SDS011;43158;51.026;18.190;2022-07-01T16:00:06;11.40;;;10.50;;
57319;SDS011;43158;51.026;18.190;2022-07-01T16:02:51;11.10;;;9.70;;
57319;SDS011;43158;51.026;18.190;2022-07-01T16:05:37;10.80;;;9.60;;
57319;SDS011;43158;51.026;18.190;2022-07-01T16:08:31;10.90;;;9.80;;
57319;SDS011;43158;51.026;18.190;2022-07-01T16:11:17;11.80;;;10.80;;
57319;SDS011;43158;51.026;18.190;2022-07-01T16:14:02;11.40;;;10.40;;
57319;SDS011;43158;51.026;18.190;2022-07-01T16:16:50;12.40;;;11.50;;
57319;SDS011;43158;51.026;18.190;2022-07-01T16:19:36;12.90;;;10.50;;